Time;durP1;ratioP1;P1;durP2;ratioP2;P2;SDS_P1;SDS_P2;PMS_P1;PMS_P2;Temp;Humidity;BMP_temperature;BMP_pressure;BME280_temperature;BME280_humidity;BME280_pressure;Samples;Min_cycle;Max_cycle;Signal;HPM_P1;HPM_P2
2022/06/23 00:00:12;;;;;;;14.18;9.93;;;;;;;12.77;74.82;101166.67;1735890;82;21105;-82
2022/06/23 00:02:41;;;;;;;12.85;10.15;;;;;;;12.76;74.94;101166.63;1724045;82;21055;-85
2022/06/23 00:05:14;;;;;;;12.98;10.20;;;;;;;12.73;75.05;101168.78;1726758;82;21035;-85
2022/06/23 00:07:43;;;;;;;;;;;;;;;12.72;75.09;101175.34;1729287;82;21355;-83
2022/06/23 00:10:18;;;;;;;14.93;10.18;;;;;;;12.70;75.26;101176.63;1710233;82;21746;-85
2022/06/23 00:12:45;;;;;;;12.25;10.08;;;;;;;12.68;75.22;101177.02;1717031;82;21569;-83
2022/06/23 00:15:21;;;;;;;11.63;10.03;;;;;;;12.64;75.29;101172.09;1675464;85;21066;-86
2022/06/23 00:18:06;;;;;;;13.55;9.60;;;;;;;12.63;75.36;101174.29;1693507;83;21330;-86
2022/06/23 00:20:49;;;;;;;12.07;9.63;;;;;;;12.62;75.35;101170.28;1696923;84;21068;-83
2022/06/23 00:23:27;;;;;;;12.50;10.00;;;;;;;12.60;75.45;101162.76;1649624;85;26036;-85
2022/06/23 00:26:17;;;;;;;14.43;10.45;;;;;;;12.59;75.45;101164.52;1642679;85;21091;-86
2022/06/23 00:28:54;;;;;;;13.05;9.70;;;;;;;12.57;75.48;101167.95;1648940;85;21098;-83
2022/06/23 00:31:39;;;;;;;12.82;10.00;;;;;;;12.53;75.57;101166.98;1629474;86;21132;-86
2022/06/23 00:34:21;;;;;;;13.90;10.90;;;;;;;12.51;75.57;101169.14;1665068;85;21051;-86
2022/06/23 00:37:04;;;;;;;12.23;10.18;;;;;;;12.49;75.62;101173.06;1668713;85;21222;-82
2022/06/23 00:40:03;;;;;;;14.45;10.32;;;;;;;12.48;75.69;101171.30;1709665;82;21070;-86
2022/06/23 00:42:37;;;;;;;15.38;9.73;;;;;;;12.46;75.71;101176.94;1721972;82;21059;-83
2022/06/23 00:45:31;;;;;;;15.32;9.80;;;;;;;12.43;75.75;101176.88;1666633;84;21075;-86
2022/06/23 00:48:15;;;;;;;12.83;9.93;;;;;;;12.41;75.77;101173.31;1644221;85;21067;-85
2022/06/23 00:50:59;;;;;;;;;;;;;;;12.39;75.81;101175.03;1664253;85;21825;-82
2022/06/23 00:53:37;;;;;;;12.85;10.00;;;;;;;12.37;75.98;101181.59;1672906;85;20264;-85
2022/06/23 00:56:27;;;;;;;14.50;9.00;;;;;;;12.35;75.93;101175.38;1669924;85;21063;-85
2022/06/23 00:59:04;;;;;;;15.28;8.85;;;;;;;12.33;75.98;101176.17;1727208;82;21660;-82
2022/06/23 01:01:58;;;;;;;17.07;9.28;;;;;;;12.28;76.00;101168.16;1692247;82;21060;-82
2022/06/23 01:04:49;;;;;;;12.78;8.90;;;;;;;12.24;76.07;101176.42;1703267;84;22772;-85
2022/06/23 01:07:47;;;;;;;10.15;8.23;;;;;;;12.23;76.22;101169.78;1713492;82;21671;-83
2022/06/23 01:10:33;;;;;;;10.60;8.68;;;;;;;12.21;76.18;101168.86;1702975;82;21102;-82
2022/06/23 01:13:05;;;;;;;9.53;8.48;;;;;;;12.21;76.22;101168.86;1718468;82;21635;-82
2022/06/23 01:15:37;;;;;;;13.70;8.28;;;;;;;12.19;76.26;101172.77;1739780;82;21070;-85
2022/06/23 01:18:18;;;;;;;9.93;8.43;;;;;;;12.19;76.28;101179.36;1729775;82;21758;-82
2022/06/23 01:20:55;;;;;;;15.28;8.95;;;;;;;12.19;76.32;101182.44;1725744;82;21301;-85
2022/06/23 01:24:02;;;;;;;13.65;7.92;;;;;;;12.18;76.34;101180.23;1700549;82;21266;-82
2022/06/23 01:27:15;;;;;;;10.23;8.23;;;;;;;12.15;76.35;101178.83;1733537;82;20996;-82
2022/06/23 01:29:51;;;;;;;11.20;8.20;;;;;;;12.16;76.43;101177.08;1716240;82;21063;-82
2022/06/23 01:32:26;;;;;;;11.68;8.88;;;;;;;12.13;76.45;101179.22;1737901;82;21781;-85
2022/06/23 01:35:07;;;;;;;12.30;8.88;;;;;;;12.12;76.55;101181.38;1701596;83;21314;-82
2022/06/23 01:37:51;;;;;;;13.55;9.63;;;;;;;12.12;76.68;101181.81;1734454;82;21059;-85
2022/06/23 01:40:47;;;;;;;14.25;9.83;;;;;;;12.13;76.71;101175.27;1725319;82;21094;-82
2022/06/23 01:43:25;;;;;;;15.30;9.50;;;;;;;12.13;76.76;101179.22;1716746;82;21051;-86
2022/06/23 01:46:05;;;;;;;14.45;9.18;;;;;;;12.14;76.79;101195.94;1715927;82;21717;-82
2022/06/23 01:49:00;;;;;;;12.78;9.83;;;;;;;12.13;76.76;101195.05;1735259;82;21078;-83
2022/06/23 01:51:41;;;;;;;12.98;8.85;;;;;;;12.11;76.75;101192.80;1738012;81;21050;-86
2022/06/23 01:54:21;;;;;;;13.03;10.35;;;;;;;12.08;76.78;101200.63;1744513;82;21208;-82
2022/06/23 01:57:13;;;;;;;12.15;10.15;;;;;;;12.06;76.86;101197.06;1740787;82;21257;-86
2022/06/23 02:00:09;;;;;;;15.10;10.58;;;;;;;12.06;76.92;101203.66;1687252;84;21809;-87
2022/06/23 02:02:51;;;;;;;11.68;9.85;;;;;;;12.04;77.01;101202.73;1683450;84;21047;-83
2022/06/23 02:05:53;;;;;;;12.43;9.13;;;;;;;12.04;77.03;101197.45;1702471;83;21059;-85
2022/06/23 02:08:44;;;;;;;14.40;9.73;;;;;;;12.05;77.07;101196.17;1687043;84;21062;-83
2022/06/23 02:11:33;;;;;;;12.58;9.73;;;;;;;12.05;77.07;101197.94;1695346;84;21130;-83
2022/06/23 02:14:28;;;;;;;12.28;9.15;;;;;;;12.04;77.04;101198.33;1675914;84;21710;-87
2022/06/23 02:17:03;;;;;;;;;;;;;;;12.04;77.10;101193.06;1685133;84;21051;-87
2022/06/23 02:19:48;;;;;;;10.05;8.95;;;;;;;12.02;77.13;101198.72;1685969;84;20853;-87
2022/06/23 02:22:35;;;;;;;10.88;8.70;;;;;;;12.02;77.13;101193.88;1699753;83;21095;-87
2022/06/23 02:25:16;;;;;;;9.88;8.23;;;;;;;12.03;77.16;101200.92;1639974;83;21063;-86
2022/06/23 02:27:50;;;;;;;11.60;8.43;;;;;;;12.04;77.18;101200.09;1686091;84;23679;-84
2022/06/23 02:30:31;;;;;;;15.13;9.23;;;;;;;12.05;77.21;101205.84;1656879;85;21082;-86
2022/06/23 02:33:23;;;;;;;11.25;8.13;;;;;;;12.07;77.24;101205.46;1679270;84;21110;-81
2022/06/23 02:36:20;;;;;;;11.70;8.63;;;;;;;12.13;77.27;101208.69;1659576;85;21107;-81
2022/06/23 02:38:52;;;;;;;12.15;9.00;;;;;;;12.16;77.17;101203.47;1648507;85;21741;-82
2022/06/23 02:41:31;;;;;;;13.60;9.25;;;;;;;12.17;77.06;101207.91;1637515;86;21935;-85
2022/06/23 02:44:29;;;;;;;10.32;8.83;;;;;;;12.18;77.08;101201.75;1622439;87;21098;-82
2022/06/23 02:47:24;;;;;;;12.13;9.45;;;;;;;12.20;77.06;101203.59;1685880;84;21075;-82
2022/06/23 02:50:27;;;;;;;12.53;8.78;;;;;;;12.24;77.02;101212.05;1681974;84;21601;-85
2022/06/23 02:53:25;;;;;;;12.05;9.23;;;;;;;12.29;76.97;101211.27;1668139;84;21135;-83
2022/06/23 02:56:09;;;;;;;14.10;9.13;;;;;;;12.34;77.01;101213.61;1680012;83;21770;-86
2022/06/23 02:58:50;;;;;;;14.35;9.63;;;;;;;12.40;76.97;101219.03;1704659;82;21122;-83
2022/06/23 03:01:30;;;;;;;15.95;10.23;;;;;;;12.48;76.93;101215.27;1705894;82;21079;-83
2022/06/23 03:04:02;;;;;;;17.05;10.08;;;;;;;12.53;76.79;101223.77;1705192;82;21079;-83
2022/06/23 03:06:40;;;;;;;13.78;11.08;;;;;;;12.60;76.78;101223.50;1704950;82;21047;-86
2022/06/23 03:09:20;;;;;;;14.05;10.32;;;;;;;12.67;76.66;101224.12;1704833;82;21776;-84
2022/06/23 03:12:09;;;;;;;15.85;10.82;;;;;;;12.73;76.54;101223.37;1705754;82;21417;-85
2022/06/23 03:14:50;;;;;;;11.53;9.28;;;;;;;12.78;76.47;101223.95;1700849;82;21079;-82
2022/06/23 03:17:37;;;;;;;14.95;9.30;;;;;;;12.87;76.43;101227.64;1701671;82;21810;-84
2022/06/23 03:20:15;;;;;;;12.07;8.15;;;;;;;12.98;76.46;101228.34;1718451;82;21079;-85
2022/06/23 03:23:12;;;;;;;17.35;9.05;;;;;;;13.12;76.32;101237.02;1730475;82;21769;-85
2022/06/23 03:25:55;;;;;;;10.58;8.43;;;;;;;13.23;76.23;101229.80;1694639;82;21067;-83
2022/06/23 03:28:28;;;;;;;13.18;8.95;;;;;;;13.44;76.25;101232.48;1682723;84;21055;-83
2022/06/23 03:31:24;;;;;;;11.15;8.30;;;;;;;14.10;77.90;101229.80;1671809;84;21087;-86
2022/06/23 03:34:06;;;;;;;13.68;7.95;;;;;;;15.59;78.25;101231.17;1678460;85;21075;-83
2022/06/23 03:36:43;;;;;;;8.85;6.87;;;;;;;16.95;77.37;101233.82;1671101;85;21790;-84
2022/06/23 03:42:23;;;;;;;12.25;7.90;;;;;;;17.63;70.91;101233.30;1660773;85;21048;-83
2022/06/23 03:45:13;;;;;;;7.58;6.67;;;;;;;17.13;70.07;101235.72;1654740;85;21176;-86
2022/06/23 03:47:56;;;;;;;11.93;7.40;;;;;;;16.92;70.02;101236.48;1705698;82;21131;-83
2022/06/23 03:50:38;;;;;;;9.28;7.33;;;;;;;16.95;70.08;101240.05;1705665;82;22573;-86
2022/06/23 03:53:15;;;;;;;10.03;6.70;;;;;;;17.41;70.39;101231.42;1693678;82;21073;-85
2022/06/23 03:55:49;;;;;;;9.85;6.97;;;;;;;18.78;71.42;101236.58;1701594;82;21083;-85
2022/06/23 03:58:42;;;;;;;7.42;5.65;;;;;;;21.18;71.41;101234.80;1716599;82;21111;-86
2022/06/23 04:01:19;;;;;;;7.85;5.78;;;;;;;23.40;68.74;101229.59;1697688;84;21117;-83
2022/06/23 04:04:06;;;;;;;8.60;5.42;;;;;;;25.51;65.23;101235.18;1678975;84;21827;-85
2022/06/23 04:06:39;;;;;;;7.40;4.47;;;;;;;27.10;62.51;101231.84;1704637;83;21186;-85
2022/06/23 04:09:27;;;;;;;;;;;;;;;28.75;60.09;101238.91;1682180;83;21593;-86
2022/06/23 04:12:07;;;;;;;7.40;5.08;;;;;;;30.01;56.86;101242.71;1675933;84;20559;-87
2022/06/23 04:14:54;;;;;;;5.75;5.08;;;;;;;31.13;54.99;101237.52;1670515;85;22139;-84
2022/06/23 04:17:34;;;;;;;5.75;4.62;;;;;;;32.22;52.28;101241.98;1632695;86;22709;-84
2022/06/23 04:20:21;;;;;;;12.45;4.75;;;;;;;33.19;50.17;101239.83;1647745;86;21187;-87
2022/06/23 04:23:30;;;;;;;11.93;4.47;;;;;;;34.02;48.15;101237.25;1620074;88;21212;-84
2022/06/23 04:26:02;;;;;;;6.85;4.50;;;;;;;34.73;46.31;101233.04;1641625;86;21115;-89
2022/06/23 04:28:33;;;;;;;7.62;4.90;;;;;;;35.52;44.50;101242.07;1645728;86;21078;-89
2022/06/23 04:31:01;;;;;;;7.62;4.30;;;;;;;36.24;42.96;101242.75;1643987;86;21803;-86
2022/06/23 04:33:28;;;;;;;8.20;4.78;;;;;;;36.79;41.41;101253.63;1645541;86;21138;-86
2022/06/23 04:35:58;;;;;;;7.20;4.08;;;;;;;37.34;40.50;101265.73;1623882;87;21192;-90
2022/06/23 04:38:42;;;;;;;5.60;3.40;;;;;;;37.80;38.93;101263.02;1633410;87;21230;-85
2022/06/23 04:41:16;;;;;;;6.42;3.98;;;;;;;38.07;37.99;101263.99;1644372;86;21004;-88
2022/06/23 04:43:54;;;;;;;5.65;3.62;;;;;;;38.56;36.52;101270.03;1647491;86;21821;-87
2022/06/23 04:46:49;;;;;;;5.87;3.52;;;;;;;38.86;35.80;101271.50;1638835;86;21211;-86
2022/06/23 04:49:35;;;;;;;5.92;4.05;;;;;;;39.32;34.97;101277.61;1629122;86;21699;-86
2022/06/23 04:52:13;;;;;;;9.40;4.03;;;;;;;39.93;33.92;101280.92;1643033;87;21099;-85
2022/06/23 04:54:54;;;;;;;5.78;3.90;;;;;;;40.38;32.72;101275.47;1643670;86;21143;-85
2022/06/23 04:57:44;;;;;;;5.33;3.60;;;;;;;40.59;32.02;101278.94;1630056;86;21764;-85
2022/06/23 05:00:31;;;;;;;5.00;3.42;;;;;;;41.05;31.15;101276.98;1658389;83;21153;-85
2022/06/23 05:03:02;;;;;;;4.37;3.10;;;;;;;41.14;30.30;101279.70;1667331;85;21063;-87
2022/06/23 05:05:32;;;;;;;7.87;3.80;;;;;;;41.48;29.64;101281.10;1693571;84;20991;-85
2022/06/23 05:08:06;;;;;;;5.65;3.42;;;;;;;41.70;29.14;101272.98;1686994;84;21155;-86
2022/06/23 05:11:10;;;;;;;5.97;3.27;;;;;;;41.92;28.50;101284.16;1703884;84;22604;-85
2022/06/23 05:13:43;;;;;;;7.62;3.75;;;;;;;42.02;27.90;101293.25;1686231;84;21066;-82
2022/06/23 05:16:31;;;;;;;;;;;;;;;;;;;;;
2022/06/23 05:18:51;;;;;;;7.05;3.30;;;;;;;42.26;26.90;101284.39;1676686;84;21620;-86
2022/06/23 05:21:22;;;;;;;3.67;2.35;;;;;;;42.49;26.39;101293.12;1701065;83;21071;-84
2022/06/23 05:23:54;;;;;;;4.17;2.75;;;;;;;42.62;26.18;101298.27;1682694;84;21725;-87
2022/06/23 05:26:37;;;;;;;4.80;2.85;;;;;;;42.75;25.37;101297.02;1679110;84;21055;-85
2022/06/23 05:29:17;;;;;;;7.50;3.22;;;;;;;42.64;25.29;101288.44;1697643;84;21059;-85
2022/06/23 05:31:47;;;;;;;4.22;2.77;;;;;;;42.71;24.83;101290.40;1677833;84;21132;-85
2022/06/23 05:34:24;;;;;;;6.87;3.05;;;;;;;42.73;24.76;101295.27;1695318;83;21082;-85
2022/06/23 05:37:05;;;;;;;5.00;2.83;;;;;;;42.97;24.53;101292.39;1692385;84;21813;-85
2022/06/23 05:39:52;;;;;;;6.85;2.98;;;;;;;43.22;24.22;101294.81;1681850;84;21086;-85
2022/06/23 05:42:26;;;;;;;5.53;3.12;;;;;;;43.17;24.05;101293.56;1691077;83;21774;-85
2022/06/23 05:45:01;;;;;;;7.97;3.15;;;;;;;42.13;23.19;101295.83;1685032;84;21538;-84
2022/06/23 05:47:29;;;;;;;6.50;3.02;;;;;;;39.56;23.23;101294.37;1692640;84;21086;-85
2022/06/23 05:50:00;;;;;;;6.10;3.20;;;;;;;36.70;24.18;101288.13;1699600;83;21780;-84
2022/06/23 05:52:32;;;;;;;5.55;3.00;;;;;;;34.31;25.47;101285.50;1678745;84;21175;-85
2022/06/23 05:55:16;;;;;;;7.85;3.47;;;;;;;32.46;26.90;101291.45;1687764;84;21106;-85
2022/06/23 05:57:57;;;;;;;4.60;3.15;;;;;;;30.81;28.07;101286.27;1700956;84;21040;-86
2022/06/23 06:00:52;;;;;;;8.48;3.65;;;;;;;29.31;29.51;101286.67;1720274;82;21100;-86
2022/06/23 06:03:41;;;;;;;5.53;3.42;;;;;;;28.10;30.85;101282.19;1713586;82;21803;-85
2022/06/23 06:06:08;;;;;;;6.25;3.58;;;;;;;27.04;32.12;101282.03;1715736;82;21087;-84
2022/06/23 06:11:36;;;;;;;9.23;3.72;;;;;;;25.82;34.36;101292.25;1713305;82;21159;-85
2022/06/23 06:14:04;;;;;;;4.85;3.52;;;;;;;25.14;35.15;101293.67;1696098;82;21090;-85
2022/06/23 06:16:30;;;;;;;9.00;3.30;;;;;;;24.63;35.82;101299.02;1739108;82;21790;-85
2022/06/23 06:18:57;;;;;;;6.20;3.67;;;;;;;24.22;36.79;101301.33;1733631;82;21565;-84
2022/06/23 06:21:24;;;;;;;6.30;3.83;;;;;;;23.88;37.57;101303.89;1713779;82;21098;-84
2022/06/23 06:24:08;;;;;;;5.92;3.83;;;;;;;23.60;38.25;101307.98;1730336;82;21047;-84
2022/06/23 06:26:41;;;;;;;7.47;3.75;;;;;;;23.34;38.87;101307.63;1716403;82;21036;-84
2022/06/23 06:29:16;;;;;;;6.50;4.12;;;;;;;23.06;39.58;101301.41;1718844;82;21811;-83
2022/06/23 06:31:50;;;;;;;8.13;4.25;;;;;;;22.78;40.11;101309.03;1714918;82;21075;-84
2022/06/23 06:34:33;;;;;;;6.80;3.83;;;;;;;22.54;40.71;101325.06;1709987;82;21075;-84
2022/06/23 06:37:00;;;;;;;7.50;4.10;;;;;;;22.29;41.26;101326.31;1694245;83;21715;-84
2022/06/23 06:39:35;;;;;;;7.33;3.85;;;;;;;22.14;42.02;101331.39;1718556;82;21181;-86
2022/06/23 06:42:07;;;;;;;10.70;4.72;;;;;;;21.98;42.53;101319.56;1703596;83;21832;-85
2022/06/23 06:44:35;;;;;;;7.53;4.05;;;;;;;21.77;43.40;101322.06;1730103;82;21118;-84
2022/06/23 06:47:02;;;;;;;7.12;4.12;;;;;;;21.77;43.40;101322.06;1721664;82;22319;-84
2022/06/23 06:49:29;;;;;;;12.37;4.60;;;;;;;21.65;43.84;101329.34;1736887;82;21619;-85
2022/06/23 06:51:58;;;;;;;7.22;3.80;;;;;;;21.54;44.07;101332.14;1712115;82;21031;-84
2022/06/23 06:54:51;;;;;;;8.05;4.00;;;;;;;21.34;44.42;101318.04;1712745;81;21773;-84
2022/06/23 06:57:35;;;;;;;12.10;4.28;;;;;;;21.39;44.81;101336.30;1714033;82;21086;-85
2022/06/23 07:00:17;;;;;;;6.20;4.30;;;;;;;21.27;45.21;101327.95;1678238;84;26684;-85
2022/06/23 07:02:48;;;;;;;12.82;4.30;;;;;;;21.35;45.80;101333.22;1673257;84;21127;-85
2022/06/23 07:05:53;;;;;;;11.15;4.20;;;;;;;21.36;46.02;101335.01;1658217;84;21103;-84
2022/06/23 07:08:31;;;;;;;7.62;4.15;;;;;;;21.38;46.21;101332.29;1689073;83;21762;-86
2022/06/23 07:11:12;;;;;;;11.43;4.62;;;;;;;21.35;46.40;101328.74;1667256;84;21088;-85
2022/06/23 07:14:05;;;;;;;7.97;4.75;;;;;;;21.36;46.59;101329.19;1668361;84;21048;-84
2022/06/23 07:16:43;;;;;;;9.95;4.75;;;;;;;21.33;46.77;101339.05;1615175;87;21946;-83
2022/06/23 07:19:24;;;;;;;10.08;3.40;;;;;;;21.28;46.74;101335.06;1675204;84;21091;-83
2022/06/23 07:22:15;;;;;;;5.05;3.33;;;;;;;21.23;47.04;101330.22;1659618;84;21872;-84
2022/06/23 07:25:12;;;;;;;7.45;3.67;;;;;;;21.29;47.29;101335.51;1679761;84;21088;-86
2022/06/23 07:27:55;;;;;;;6.60;3.83;;;;;;;21.39;47.50;101336.30;1660339;84;21063;-85
2022/06/23 07:30:39;;;;;;;9.48;4.20;;;;;;;21.45;47.55;101346.97;1667979;84;21060;-83
2022/06/23 07:33:10;;;;;;;7.20;4.42;;;;;;;21.47;47.55;101341.17;1640547;85;21093;-83
2022/06/23 07:35:51;;;;;;;11.12;4.35;;;;;;;21.46;47.38;101346.08;1622499;85;21847;-83
2022/06/23 07:38:39;;;;;;;5.58;3.52;;;;;;;21.45;47.16;101344.29;1616922;87;21609;-83
2022/06/23 07:41:36;;;;;;;5.65;3.65;;;;;;;21.46;47.76;101349.22;1640576;85;21052;-84
2022/06/23 07:44:22;;;;;;;5.15;3.47;;;;;;;21.50;47.68;101345.59;1619446;87;21082;-83
2022/06/23 07:46:49;;;;;;;6.78;3.92;;;;;;;21.55;47.71;101352.68;1628384;87;21063;-84
2022/06/23 07:49:16;;;;;;;6.78;3.47;;;;;;;21.58;47.79;101350.41;1627102;87;22580;-84
2022/06/23 07:51:43;;;;;;;6.25;3.45;;;;;;;21.64;47.88;101348.11;1625161;87;21072;-85
2022/06/23 07:54:16;;;;;;;16.30;4.30;;;;;;;21.65;47.87;101341.86;1639587;86;21164;-84
2022/06/23 07:56:43;;;;;;;7.78;3.70;;;;;;;21.67;47.87;101338.71;1631014;86;21100;-84
2022/06/23 07:59:12;;;;;;;11.57;5.83;;;;;;;21.67;47.81;101338.71;1621671;85;21087;-84
2022/06/23 08:01:53;;;;;;;10.98;3.87;;;;;;;21.69;48.09;101335.56;1656602;85;21746;-83
2022/06/23 08:04:49;;;;;;;6.72;3.72;;;;;;;21.76;48.24;101337.27;1652860;85;21644;-83
2022/06/23 08:07:16;;;;;;;7.25;3.92;;;;;;;21.83;48.08;101336.29;1644070;85;21131;-84
2022/06/23 08:09:48;;;;;;;8.50;3.75;;;;;;;21.85;47.90;101333.14;1645099;86;21125;-84
2022/06/23 08:18:01;;;;;;;6.60;3.60;;;;;;;21.94;48.10;101333.02;1649391;85;21085;-84
2022/06/23 08:20:29;;;;;;;7.33;4.42;;;;;;;21.96;48.13;101338.37;1660066;85;21686;-84
2022/06/23 08:22:56;;;;;;;5.00;3.75;;;;;;;22.02;48.19;101344.11;1625260;86;21055;-84
2022/06/23 08:25:23;;;;;;;7.47;4.10;;;;;;;22.03;48.00;101337.82;1666694;85;21082;-84
2022/06/23 08:27:54;;;;;;;7.28;4.62;;;;;;;22.01;48.04;101336.95;1658140;84;21822;-83
2022/06/23 08:30:22;;;;;;;7.17;4.50;;;;;;;21.96;48.19;101337.46;1653218;85;21135;-83
2022/06/23 08:32:51;;;;;;;6.87;4.55;;;;;;;21.86;48.34;101340.72;1657581;85;21165;-83
2022/06/23 08:35:32;;;;;;;8.60;4.22;;;;;;;21.85;48.62;101343.86;1662152;85;21068;-84
2022/06/23 08:38:16;;;;;;;9.05;4.33;;;;;;;21.85;48.63;101338.50;1652102;85;21621;-83
2022/06/23 08:41:15;;;;;;;7.78;4.37;;;;;;;21.85;48.82;101341.64;1657689;85;21894;-84
2022/06/23 08:43:57;;;;;;;8.08;5.03;;;;;;;21.86;48.77;101340.72;1607027;87;21155;-84
2022/06/23 08:46:48;;;;;;;8.50;4.58;;;;;;;21.84;48.91;101335.37;1612307;87;21079;-84
2022/06/23 08:49:30;;;;;;;10.20;6.55;;;;;;;21.85;49.06;101331.80;1609898;88;21112;-83
2022/06/23 08:52:05;;;;;;;10.10;4.27;;;;;;;21.88;49.14;101336.22;1601743;87;21400;-84
2022/06/23 08:54:48;;;;;;;9.73;4.70;;;;;;;21.93;49.15;101333.91;1609985;88;21794;-83
2022/06/23 08:57:38;;;;;;;8.90;4.75;;;;;;;21.97;49.04;101334.77;1611477;88;21172;-85
2022/06/23 09:00:23;;;;;;;9.30;3.83;;;;;;;22.05;49.20;101336.88;1616550;88;21204;-86
2022/06/23 09:03:07;;;;;;;7.22;3.72;;;;;;;22.14;49.31;101342.13;1612387;87;21911;-84
2022/06/23 09:05:57;;;;;;;6.35;3.52;;;;;;;22.30;49.38;101335.27;1624404;86;21115;-84
2022/06/23 09:09:03;;;;;;;7.35;3.42;;;;;;;22.43;49.27;101340.88;1620784;86;22646;-83
2022/06/23 09:11:41;;;;;;;6.28;3.98;;;;;;;22.51;48.99;101339.42;1625652;88;21648;-86
2022/06/23 09:14:51;;;;;;;6.12;3.98;;;;;;;22.54;48.67;101342.50;1638662;85;21040;-84
2022/06/23 09:18:00;;;;;;;6.25;3.95;;;;;;;22.47;48.58;101344.41;1648090;86;21124;-84
2022/06/23 09:21:07;;;;;;;8.28;4.03;;;;;;;22.39;48.56;101340.50;1676607;85;21293;-84
2022/06/23 09:24:00;;;;;;;12.55;4.70;;;;;;;22.51;48.85;101338.08;1660873;85;21608;-84
2022/06/23 09:26:46;;;;;;;5.90;3.77;;;;;;;22.85;49.02;101338.88;1660336;85;21040;-83
2022/06/23 09:29:56;;;;;;;9.45;4.00;;;;;;;23.13;48.85;101345.17;1661193;85;21083;-84
2022/06/23 09:32:34;;;;;;;8.23;3.75;;;;;;;23.35;48.46;101349.23;1648254;86;21087;-83
2022/06/23 09:35:12;;;;;;;12.13;4.33;;;;;;;23.36;48.17;101332.65;1654704;85;21104;-84
2022/06/23 09:37:47;;;;;;;9.10;4.58;;;;;;;23.48;48.07;101346.74;1652618;85;21794;-85
2022/06/23 09:40:39;;;;;;;7.92;3.62;;;;;;;23.52;48.04;101353.38;1661320;85;21071;-83
2022/06/23 09:43:31;;;;;;;10.63;5.70;;;;;;;23.64;48.14;101355.37;1662416;85;21707;-83
2022/06/23 09:46:37;;;;;;;10.65;5.67;;;;;;;23.80;48.08;101362.73;1658412;85;21610;-83
2022/06/23 09:49:24;;;;;;;9.95;6.67;;;;;;;23.70;48.32;101348.99;1655266;85;21403;-84
2022/06/23 09:52:26;;;;;;;12.95;5.87;;;;;;;23.38;48.29;101371.11;1652413;85;21837;-84
2022/06/23 09:55:14;;;;;;;12.50;4.87;;;;;;;23.07;48.95;101367.17;1624669;86;21249;-83
2022/06/23 09:58:24;;;;;;;11.30;6.00;;;;;;;22.85;49.42;101372.44;1668350;85;21067;-83
2022/06/23 10:01:25;;;;;;;9.30;6.00;;;;;;;22.67;49.77;101370.48;1696202;82;21051;-84
2022/06/23 10:04:09;;;;;;;10.43;5.70;;;;;;;22.09;50.56;101352.05;1735438;82;21043;-83
2022/06/23 10:07:00;;;;;;;8.98;5.42;;;;;;;22.09;50.56;101352.05;1722281;82;21773;-85
2022/06/23 10:09:41;;;;;;;12.53;7.83;;;;;;;21.97;50.83;101348.17;1697521;82;21684;-82
2022/06/23 10:12:50;;;;;;;8.50;5.50;;;;;;;22.08;51.30;101362.78;1700446;82;21119;-85
2022/06/23 10:15:54;;;;;;;9.15;6.10;;;;;;;22.08;51.30;101362.78;1699712;82;21636;-83
2022/06/23 10:18:35;;;;;;;13.62;6.28;;;;;;;22.06;51.40;101356.09;1656384;83;21132;-82
2022/06/23 10:21:23;;;;;;;9.58;5.55;;;;;;;22.07;51.52;101358.31;1709389;82;21776;-83
2022/06/23 10:23:56;;;;;;;13.28;6.40;;;;;;;22.04;51.58;101353.89;1725523;82;21090;-83
2022/06/23 10:26:40;;;;;;;9.43;5.42;;;;;;;22.08;51.63;101354.27;1700397;84;21149;-84
2022/06/23 10:29:30;;;;;;;11.90;6.00;;;;;;;22.08;51.63;101354.27;1669373;85;21636;-83
2022/06/23 10:32:08;;;;;;;10.23;5.37;;;;;;;22.10;52.02;101355.60;1652804;85;21059;-85
2022/06/23 10:35:00;;;;;;;9.53;6.10;;;;;;;22.15;51.87;101352.42;1630633;85;22611;-82
2022/06/23 10:38:02;;;;;;;12.15;5.55;;;;;;;22.13;52.13;101355.11;1657235;84;21075;-84
2022/06/23 10:40:51;;;;;;;11.15;5.92;;;;;;;22.04;52.13;101332.91;1738093;82;21726;-83
2022/06/23 10:43:50;;;;;;;10.60;5.95;;;;;;;22.24;52.35;101362.11;1669865;84;21073;-86
2022/06/23 10:46:51;;;;;;;10.35;5.28;;;;;;;22.26;52.28;101355.87;1682640;83;21142;-85
2022/06/23 10:49:58;;;;;;;11.12;5.40;;;;;;;22.04;52.27;101336.92;1716283;82;21787;-84
2022/06/23 10:52:50;;;;;;;9.40;5.35;;;;;;;22.04;52.27;101336.92;1715550;83;21039;-84
2022/06/23 10:55:37;;;;;;;9.20;5.03;;;;;;;22.21;52.56;101360.83;1686695;83;21134;-85
2022/06/23 10:58:24;;;;;;;8.33;5.50;;;;;;;22.23;52.66;101368.40;1728855;82;21191;-86
2022/06/23 11:01:23;;;;;;;12.25;5.75;;;;;;;22.21;52.68;101360.83;1678912;83;21129;-86
2022/06/23 11:03:57;;;;;;;9.43;5.83;;;;;;;22.03;52.61;101341.84;1701389;84;21788;-85
2022/06/23 11:06:51;;;;;;;8.93;5.25;;;;;;;22.09;53.01;101376.17;1711276;82;21030;-85
2022/06/23 11:09:49;;;;;;;9.88;5.62;;;;;;;22.09;53.01;101376.17;1708049;82;21078;-85
2022/06/23 11:12:43;;;;;;;9.98;5.80;;;;;;;22.23;53.03;101377.32;1703555;83;21133;-84
2022/06/23 11:15:34;;;;;;;10.85;5.72;;;;;;;22.21;52.96;101372.44;1705790;82;21077;-85
2022/06/23 11:18:32;;;;;;;10.13;5.17;;;;;;;22.00;53.08;101333.39;1665093;84;21836;-85
2022/06/23 11:21:37;;;;;;;12.43;5.58;;;;;;;22.00;53.08;101333.39;1638542;86;21117;-84
2022/06/23 11:24:42;;;;;;;10.93;5.72;;;;;;;22.11;53.11;101355.59;1621149;87;22137;-85
2022/06/23 11:27:17;;;;;;;10.45;5.85;;;;;;;22.07;53.13;101358.31;1636994;86;21102;-84
2022/06/23 11:30:09;;;;;;;8.93;5.28;;;;;;;22.07;53.13;101358.31;1634294;86;21095;-84
2022/06/23 11:33:15;;;;;;;10.18;5.30;;;;;;;22.08;53.45;101352.06;1636385;86;21388;-84
2022/06/23 11:36:06;;;;;;;9.98;5.55;;;;;;;22.12;53.32;101360.02;1625074;86;21160;-83
2022/06/23 11:38:53;;;;;;;8.90;5.20;;;;;;;22.05;53.31;101362.81;1609690;86;21098;-83
2022/06/23 11:42:00;;;;;;;12.82;5.90;;;;;;;22.04;53.62;101360.59;1626145;86;21102;-83
2022/06/23 11:45:09;;;;;;;7.50;5.37;;;;;;;22.11;53.67;101364.06;1611093;86;21666;-84
2022/06/23 11:48:01;;;;;;;8.20;5.60;;;;;;;22.05;53.40;101369.52;1605203;86;21823;-83
2022/06/23 11:51:00;;;;;;;8.18;5.30;;;;;;;21.93;53.54;101365.20;1626407;86;21127;-84
2022/06/23 11:53:55;;;;;;;11.28;5.53;;;;;;;21.89;53.83;101363.01;1632343;86;21138;-84
2022/06/23 11:56:55;;;;;;;9.20;4.92;;;;;;;21.94;53.93;101376.34;1620944;86;21154;-83
2022/06/23 11:59:44;;;;;;;10.43;6.53;;;;;;;21.98;53.88;101370.48;1680492;83;21069;-85
2022/06/23 12:02:11;;;;;;;8.08;4.90;;;;;;;22.04;54.09;101375.34;1705738;82;21809;-85
2022/06/23 12:05:03;;;;;;;11.45;5.40;;;;;;;22.08;53.76;101379.75;1704954;82;21288;-85
2022/06/23 12:07:38;;;;;;;8.28;4.55;;;;;;;22.09;53.81;101375.27;1699404;82;21081;-83
2022/06/23 12:10:17;;;;;;;6.85;4.80;;;;;;;22.10;53.95;101367.67;1702554;82;21051;-84
2022/06/23 12:12:46;;;;;;;9.40;5.15;;;;;;;22.15;53.76;101371.19;1684741;82;21122;-83
2022/06/23 12:15:17;;;;;;;7.97;4.55;;;;;;;22.17;53.62;101372.05;1701998;82;21769;-84
2022/06/23 12:17:49;;;;;;;7.42;4.78;;;;;;;22.17;53.65;101372.48;1661538;84;21086;-83
2022/06/23 12:20:34;;;;;;;7.47;3.90;;;;;;;22.22;53.68;101371.52;1672707;84;21094;-83
2022/06/23 12:23:17;;;;;;;7.95;4.58;;;;;;;22.21;53.59;101372.44;1703554;82;21156;-83
2022/06/23 12:26:20;;;;;;;5.95;5.10;;;;;;;22.25;53.38;101375.97;1694360;82;21067;-84
2022/06/23 12:28:55;;;;;;;7.97;4.37;;;;;;;22.25;53.38;101375.97;1694719;83;21777;-83
2022/06/23 12:31:37;;;;;;;6.35;4.62;;;;;;;22.18;53.36;101375.61;1692490;82;21123;-85
2022/06/23 12:34:50;;;;;;;8.10;4.90;;;;;;;22.11;53.37;101368.08;1696182;84;21040;-83
2022/06/23 12:37:58;;;;;;;7.70;4.92;;;;;;;22.14;53.70;101370.27;1693503;84;21063;-83
2022/06/23 12:40:42;;;;;;;6.87;5.17;;;;;;;22.14;53.70;101370.27;1698364;82;21447;-84
2022/06/23 12:43:40;;;;;;;9.55;5.00;;;;;;;22.17;53.31;101376.50;1694077;82;21789;-84
2022/06/23 12:46:38;;;;;;;10.25;4.42;;;;;;;22.20;53.04;101376.01;1699207;82;21583;-84
2022/06/23 12:49:19;;;;;;;8.33;5.08;;;;;;;22.01;52.91;101375.83;1696615;83;21075;-83
2022/06/23 12:52:01;;;;;;;7.95;4.92;;;;;;;21.98;52.92;101379.45;1687079;82;21122;-84